Terminal Aerodrome Forecast
Issued by NWS

Home | Current Version | Previous Version | Text Only | Print | Product List | Glossary On
Versions: 1 2 3 4 5 6 7 8 9 10 11 12 13 14
000
FTUS42 KMLB 292336
TAFSFB
TAF
KSFB 292336Z 3000/3024 30006KT P6SM VCSH FEW020 SCT035 OVC060
      TEMPO 3000/3001 3SM TSRA BKN035CB
     FM300400 16003KT P6SM FEW025 SCT250
     FM301400 24004KT P6SM SCT020 SCT050
     FM302100 06008KT P6SM VCTS SCT050CB BKN250=

USA.gov is the U.S. government's official web portal to all federal, state and local government web resources and services.